Terminal Aerodrome Forecast
Issued by NWS Austin/San Antonio, TX

Home | Current Version | Previous Version | Text Only | Print | Product List | Glossary On
Versions: 1 2 3 4 5 6 7 8 9 10 11 12 13 14 15 16 17 18 19 20 21 22 23 24 25 26 27 28
000
FTUS44 KEWX 210500
TAFDRT
TAF
KDRT 210520Z 2106/2206 09007KT P6SM SCT040
     FM210700 11005KT P6SM BKN028
     FM210900 12005KT P6SM OVC007
     FM211500 13008KT P6SM OVC015
     FM211700 13012KT P6SM SCT025 BKN080
     FM220100 11010KT P6SM FEW150=

USA.gov is the U.S. government's official web portal to all federal, state and local government web resources and services.